Flight Track Log - Related Links

Times and Time Zones

All times are in EDT time to prevent confusion due to time zone crossing. See the SWA2624 flight status page for this flight to view local times or setup timezone preferences in your user account.

Time Position Orientation Groundspeed Altitude Reporting Facility
EDT Latitude Longitude Course Direction KTS MPH feet Rate Location/Type
Tue 07:03:30 PM 39.1833 -76.7333 284° West 182 209 1,900  Level Potomac TRACON
Tue 07:04:24 PM 39.2000 -76.8167 284° West 244 281 4,600 3,450 Climbing Potomac TRACON
Tue 07:05:30 PM 39.2000 -76.9000 270° West 244 281 8,800 3,421 Climbing Potomac TRACON
Tue 07:06:25 PM 39.2167 -76.9833 284° West 263 303 11,500 2,504 Climbing Potomac TRACON
Tue 07:07:25 PM 39.2167 -77.1000 270° West 324 373 13,600 2,554 Climbing Potomac TRACON
Tue 07:09:47 PM 39.0431 -77.3019 222° Southwest 390 449 20,100 2,394 Climbing Washington Center
Tue 07:10:48 PM 38.9850 -77.4128 236° Southwest 381 438 21,700 2,034 Climbing Washington Center
Tue 07:11:45 PM 38.9686 -77.5381 260° West 376 433 24,100 2,441 Climbing Washington Center
Tue 07:12:46 PM 38.9431 -77.6894 258° West 396 456 26,500 1,587 Climbing Washington Center
Tue 07:13:46 PM 38.9200 -77.8142 257° West 396 456 27,300 1,041 Climbing Washington Center
Tue 07:14:47 PM 38.8964 -77.9600 258° West 403 464 28,600 1,475 Climbing Washington Center
Tue 07:15:48 PM 38.8725 -78.1061 258° West 416 479 30,300 1,881 Climbing Washington Center
Tue 07:16:45 PM 38.8528 -78.2439 260° West 416 479 32,300 1,831 Climbing Washington Center
Tue 07:17:46 PM 38.8517 -78.3853 269° West 404 465 33,900 1,537 Climbing Washington Center
Tue 07:18:46 PM 38.8506 -78.5239 269° West 404 465 35,400 1,438 Climbing Washington Center
Tue 07:19:47 PM 38.8492 -78.6625 269° West 398 458 36,800 1,180 Climbing Washington Center
Tue 07:20:48 PM 38.8478 -78.7983 269° West 398 458 37,800 595 Climbing Washington Center
Tue 07:21:48 PM 38.8458 -78.9419 269° West 398 458 38,000 102 Climbing Washington Center
Tue 07:22:46 PM 38.8442 -79.0806 269° West 398 458 38,000  Level Washington Center
Tue 07:23:46 PM 38.8419 -79.2192 269° West 398 458 38,000  Level Washington Center
Tue 07:24:47 PM 38.8397 -79.3603 269° West 403 464 38,000  Level Washington Center
Tue 07:25:45 PM 38.8394 -79.5017 270° West 403 464 38,000  Level Washington Center
Tue 07:27:45 PM 38.8294 -79.7722 267° West 393 452 38,000  Level Indianapolis Center
Tue 07:28:47 PM 38.8256 -79.9408 268° West 393 452 38,000  Level Indianapolis Center
Tue 07:29:49 PM 38.8203 -80.0797 267° West 392 451 38,000  Level Indianapolis Center
Tue 07:30:51 PM 38.8172 -80.2189 268° West 391 450 38,000  Level Indianapolis Center
Tue 07:31:53 PM 38.8133 -80.3583 268° West 391 450 38,000  Level Indianapolis Center
Tue 07:32:55 PM 38.8097 -80.4953 268° West 386 444 38,000  Level Indianapolis Center
Tue 07:33:57 PM 38.8047 -80.6336 267° West 387 445 38,000  Level Indianapolis Center
Tue 07:34:59 PM 38.7997 -80.8003 268° West 391 450 38,000  Level Indianapolis Center
Tue 07:36:01 PM 38.7956 -80.9406 268° West 394 453 38,000  Level Indianapolis Center
Tue 07:37:03 PM 38.7911 -81.0819 268° West 397 457 38,000  Level Indianapolis Center
Tue 07:38:05 PM 38.7861 -81.2214 267° West 394 453 38,000  Level Indianapolis Center
Tue 07:39:07 PM 38.7814 -81.3625 268° West 398 458 38,000  Level Indianapolis Center
Tue 07:40:09 PM 38.7756 -81.5256 267° West 399 459 38,000  Level Indianapolis Center
Tue 07:41:11 PM 38.7697 -81.6656 267° West 395 455 38,000  Level Indianapolis Center
Tue 07:42:13 PM 38.7642 -81.8036 267° West 395 455 38,000  Level Indianapolis Center
Tue 07:43:14 PM 38.7586 -81.9411 267° West 389 448 38,000  Level Indianapolis Center
Tue 07:44:16 PM 38.7525 -82.0803 267° West 392 451 38,000  Level Indianapolis Center
Tue 07:45:18 PM 38.7472 -82.2183 267° West 390 449 38,000  Level Indianapolis Center
Tue 07:46:20 PM 38.7406 -82.3833 267° West 388 447 38,000  Level Indianapolis Center
Tue 07:47:22 PM 38.7356 -82.5231 267° West 390 449 38,000  Level Indianapolis Center
Tue 07:48:23 PM 38.7300 -82.6608 267° West 389 448 38,000  Level Indianapolis Center
Tue 07:49:25 PM 38.7244 -82.8003 267° West 392 451 38,000  Level Indianapolis Center
Tue 07:50:27 PM 38.7181 -82.9414 267° West 395 455 38,000  Level Indianapolis Center
Tue 07:51:29 PM 38.7119 -83.0833 267° West 398 458 38,000  Level Indianapolis Center
Tue 07:52:30 PM 38.7050 -83.2239 266° West 396 456 38,000  Level Indianapolis Center
Tue 07:53:32 PM 38.6969 -83.3897 266° West 395 455 38,000  Level Indianapolis Center
Tue 07:54:35 PM 38.6897 -83.5294 266° West 391 450 38,000  Level Indianapolis Center
Tue 07:55:35 PM 38.6831 -83.6708 267° West 393 452 38,000  Level Indianapolis Center
Tue 07:56:37 PM 38.6761 -83.8125 266° West 394 453 38,000  Level Indianapolis Center
Tue 07:57:39 PM 38.6683 -83.9522 266° West 392 451 38,000  Level Indianapolis Center
Tue 07:58:40 PM 38.6611 -84.0942 266° West 395 455 38,000  Level Indianapolis Center
Tue 07:59:43 PM 38.6533 -84.2361 266° West 396 456 38,000  Level Indianapolis Center
Tue 08:00:45 PM 38.6522 -84.3778 269° West 397 457 38,000  Level Indianapolis Center
Tue 08:01:46 PM 38.6628 -84.5403 275° West 397 457 38,000  Level Indianapolis Center
Tue 08:02:48 PM 38.6708 -84.6811 274° West 397 457 38,000  Level Indianapolis Center
Tue 08:03:49 PM 38.6786 -84.8208 274° West 396 456 38,000  Level Indianapolis Center
Tue 08:04:51 PM 38.6864 -84.9611 274° West 396 456 38,000  Level Indianapolis Center
Tue 08:05:53 PM 38.6947 -85.1014 274° West 396 456 38,000  Level Indianapolis Center
Tue 08:06:54 PM 38.7019 -85.2406 274° West 394 453 38,000  Level Indianapolis Center
Tue 08:07:56 PM 38.7086 -85.3806 274° West 394 453 38,000  Level Indianapolis Center
Tue 08:08:57 PM 38.7161 -85.5206 274° West 395 455 38,000  Level Indianapolis Center
Tue 08:09:59 PM 38.7256 -85.6914 274° West 400 460 38,000  Level Indianapolis Center
Tue 08:11:00 PM 38.7311 -85.8342 273° West 402 463 38,000  Level Indianapolis Center
Tue 08:12:02 PM 38.7383 -85.9792 274° West 403 464 38,000  Level Indianapolis Center
Tue 08:13:04 PM 38.7453 -86.1256 274° West 409 471 38,000  Level Indianapolis Center
Tue 08:14:05 PM 38.7519 -86.2700 273° West 407 468 38,000  Level Indianapolis Center
Tue 08:15:07 PM 38.7575 -86.4147 273° West 407 468 38,000  Level Indianapolis Center
Tue 08:16:09 PM 38.7639 -86.5589 273° West 408 470 38,000  Level Indianapolis Center
Tue 08:17:10 PM 38.7700 -86.7053 273° West 411 473 38,000  Level Indianapolis Center
Tue 08:18:12 PM 38.7764 -86.8778 273° West 408 470 38,000  Level Indianapolis Center
Tue 08:19:13 PM 38.7828 -87.0231 273° West 409 471 38,000  Level Indianapolis Center
Tue 08:20:15 PM 38.7881 -87.1694 273° West 412 474 38,000  Level Indianapolis Center
Tue 08:21:17 PM 38.7931 -87.3158 273° West 413 475 38,000  Level Indianapolis Center
Tue 08:22:18 PM 38.7986 -87.4619 273° West 412 474 38,000  Level Indianapolis Center
Tue 08:23:20 PM 38.8036 -87.6092 273° West 413 475 38,000  Level Indianapolis Center
Tue 08:24:22 PM 38.8078 -87.7556 272° West 412 474 38,000  Level Indianapolis Center
Tue 08:25:14 PM 38.8117 -87.9033 272° West 409 471 38,000  Level Kansas City Center
Tue 08:26:15 PM 38.8147 -88.0503 272° West 411 473 38,000  Level Kansas City Center
Tue 08:27:17 PM 38.8194 -88.1958 272° West 409 471 38,000  Level Kansas City Center
Tue 08:28:19 PM 38.8217 -88.3433 271° West 412 474 38,000  Level Kansas City Center
Tue 08:29:21 PM 38.8261 -88.4919 272° West 415 478 38,000  Level Kansas City Center
Tue 08:30:22 PM 38.8300 -88.6486 272° West 415 478 38,000  Level Kansas City Center
Tue 08:31:24 PM 38.8331 -88.7969 272° West 416 479 38,000  Level Kansas City Center
Tue 08:32:26 PM 38.8378 -88.9456 272° West 418 481 38,000  Level Kansas City Center
Tue 08:33:28 PM 38.8431 -89.1189 272° West 420 483 38,000  Level Kansas City Center
Tue 08:34:29 PM 38.8450 -89.2658 271° West 415 478 38,000  Level Kansas City Center
Tue 08:35:31 PM 38.8475 -89.4228 271° West 411 473 38,000  Level Kansas City Center
Tue 08:36:33 PM 38.8506 -89.5686 272° West 411 473 38,000  Level Kansas City Center
Tue 08:37:34 PM 38.8519 -89.7103 271° West 412 474 38,000  Level Kansas City Center
Tue 08:38:36 PM 38.8536 -89.8578 271° West 415 478 38,000  Level Kansas City Center
Tue 08:39:38 PM 38.8575 -90.0317 272° West 418 481 38,000  Level Kansas City Center
Tue 08:40:39 PM 38.8597 -90.1839 271° West 424 488 38,000  Level Kansas City Center
Tue 08:41:41 PM 38.8625 -90.3339 271° West 423 487 38,000  Level Kansas City Center
Tue 08:42:43 PM 38.8631 -90.4842 270° West 422 486 38,000  Level Kansas City Center
Tue 08:43:44 PM 38.8425 -90.6347 260° West 429 494 38,000  Level Kansas City Center
Tue 08:44:46 PM 38.8236 -90.7744 260° West 419 482 38,000  Level Kansas City Center
Tue 08:45:48 PM 38.8011 -90.9511 261° West 422 486 38,000  Level Kansas City Center
Tue 08:46:49 PM 38.7814 -91.0972 260° West 421 484 38,000  Level Kansas City Center
Tue 08:47:51 PM 38.7625 -91.2456 261° West 423 487 38,000  Level Kansas City Center
Tue 08:48:53 PM 38.7425 -91.3928 260° West 423 487 38,000  Level Kansas City Center
Tue 08:49:55 PM 38.7222 -91.5389 260° West 420 483 38,000  Level Kansas City Center
Tue 08:50:57 PM 38.7003 -91.7000 260° West 427 491 38,000  Level Kansas City Center
Tue 08:51:58 PM 38.6794 -91.8481 260° West 426 490 38,000  Level Kansas City Center
Tue 08:53:00 PM 38.6572 -91.9978 259° West 428 493 38,000  Level Kansas City Center
Tue 08:54:02 PM 38.6306 -92.1794 259° West 433 498 38,000  Level Kansas City Center
Tue 08:55:04 PM 38.6078 -92.3303 259° West 435 501 38,000  Level Kansas City Center
Tue 08:56:05 PM 38.5856 -92.4814 259° West 435 501 38,000  Level Kansas City Center
Tue 08:57:07 PM 38.5628 -92.6328 259° West 435 501 38,000  Level Kansas City Center
Tue 08:58:09 PM 38.5403 -92.7853 259° West 438 504 38,000  Level Kansas City Center
Tue 08:59:11 PM 38.5164 -92.9364 259° West 438 504 38,000  Level Kansas City Center
Tue 09:00:12 PM 38.4944 -93.0869 259° West 435 501 38,000  Level Kansas City Center
Tue 09:01:14 PM 38.4667 -93.2675 259° West 433 498 38,000  Level Kansas City Center
Tue 09:02:16 PM 38.4439 -93.4183 259° West 434 499 38,000  Level Kansas City Center
Tue 09:03:17 PM 38.4189 -93.5694 258° West 435 501 38,000  Level Kansas City Center
Tue 09:04:19 PM 38.3958 -93.7197 259° West 433 498 38,000  Level Kansas City Center
Tue 09:05:21 PM 38.3708 -93.8714 258° West 435 501 38,000  Level Kansas City Center
Tue 09:06:23 PM 38.3469 -94.0231 259° West 437 503 38,000  Level Kansas City Center
Tue 09:07:24 PM 38.3194 -94.1925 258° West 438 504 38,000  Level Kansas City Center
Tue 09:08:26 PM 38.2967 -94.3397 259° West 440 506 38,000  Level Kansas City Center
Tue 09:09:28 PM 38.2678 -94.5128 258° West 443 510 38,000  Level Kansas City Center
Tue 09:10:29 PM 38.2436 -94.6619 258° West 445 512 38,000  Level Kansas City Center
Tue 09:11:31 PM 38.2208 -94.8114 259° West 448 516 38,000  Level Kansas City Center
Tue 09:12:33 PM 38.1931 -94.9853 259° West 448 516 38,000  Level Kansas City Center
Tue 09:13:34 PM 38.1689 -95.1364 259° West 451 519 38,000  Level Kansas City Center
Tue 09:14:36 PM 38.1389 -95.3097 258° West 451 519 38,000  Level Kansas City Center
Tue 09:15:38 PM 38.1136 -95.4583 258° West 449 517 38,000  Level Kansas City Center
Tue 09:16:39 PM 38.0842 -95.6303 258° West 446 513 38,000  Level Kansas City Center
Tue 09:17:41 PM 38.0592 -95.7775 258° West 446 513 38,000  Level Kansas City Center
Tue 09:18:43 PM 38.0331 -95.9239 257° West 445 512 38,000  Level Kansas City Center
Tue 09:19:45 PM 38.0053 -96.0975 259° West 449 517 38,000  Level Kansas City Center
Tue 09:20:47 PM 37.9792 -96.2564 258° West 445 512 38,000  Level Kansas City Center
Tue 09:21:48 PM 37.9539 -96.4078 258° West 440 506 38,000  Level Kansas City Center
Tue 09:22:50 PM 37.9283 -96.5592 258° West 439 505 38,000  Level Kansas City Center
Tue 09:23:52 PM 37.9025 -96.7097 258° West 438 504 38,000  Level Kansas City Center
Tue 09:24:54 PM 37.8769 -96.8600 258° West 437 503 38,000  Level Kansas City Center
Tue 09:25:55 PM 37.8494 -97.0089 257° West 435 501 38,000  Level Kansas City Center
Tue 09:26:57 PM 37.8222 -97.1586 257° West 436 502 38,000  Level Kansas City Center
Tue 09:27:59 PM 37.7908 -97.3358 257° West 431 496 38,000  Level Kansas City Center
Tue 09:29:00 PM 37.7647 -97.4772 257° West 435 501 38,000  Level Kansas City Center
Tue 09:30:02 PM 37.7369 -97.6250 257° West 434 499 38,000  Level Kansas City Center
Tue 09:31:04 PM 37.7094 -97.7750 257° West 436 502 38,000  Level Kansas City Center
Tue 09:32:06 PM 37.6800 -97.9228 256° West 436 502 38,000  Level Kansas City Center
Tue 09:33:07 PM 37.6461 -98.1003 256° West 434 499 38,000  Level Kansas City Center
Tue 09:34:09 PM 37.6197 -98.2353 256° West 433 498 38,000  Level Kansas City Center
Tue 09:35:11 PM 37.5908 -98.3828 256° West 433 498 38,000  Level Kansas City Center
Tue 09:36:12 PM 37.5611 -98.5319 256° West 435 501 38,000  Level Kansas City Center
Tue 09:37:14 PM 37.5308 -98.6789 255° West 434 499 38,000  Level Kansas City Center
Tue 09:38:16 PM 37.5022 -98.8267 256° West 434 499 38,000  Level Kansas City Center
Tue 09:39:17 PM 37.4647 -99.0019 255° West 433 498 38,000  Level Kansas City Center
Tue 09:40:19 PM 37.4356 -99.1483 256° West 432 497 38,000  Level Kansas City Center
Tue 09:41:21 PM 37.4036 -99.2947 255° West 433 498 38,000  Level Kansas City Center
Tue 09:42:22 PM 37.3733 -99.4417 256° West 435 501 38,000  Level Kansas City Center
Tue 09:43:24 PM 37.3400 -99.6011 255° West 434 499 38,000  Level Kansas City Center
Tue 09:44:25 PM 37.3108 -99.7439 256° West 438 504 38,000  Level Kansas City Center
Tue 09:45:27 PM 37.2742 -99.9106 255° West 442 509 38,000  Level Kansas City Center
Tue 09:46:29 PM 37.2447 -100.0522 255° West 439 505 38,000  Level Kansas City Center
Tue 09:47:30 PM 37.2094 -100.2192 255° West 441 507 38,000  Level Kansas City Center
Tue 09:48:32 PM 37.1781 -100.3614 255° West 441 507 38,000  Level Kansas City Center
Tue 09:49:34 PM 37.1475 -100.5044 255° West 442 509 38,000  Level Kansas City Center
Tue 09:50:35 PM 37.1111 -100.6703 255° West 441 507 38,000  Level Kansas City Center
Tue 09:51:37 PM 37.0797 -100.8125 255° West 441 507 38,000  Level Kansas City Center
Tue 09:52:38 PM 37.0475 -100.9550 254° West 442 509 38,000  Level Kansas City Center
Tue 09:53:40 PM 37.0036 -101.1194 252° West 445 512 38,000  Level Kansas City Center
Tue 09:54:41 PM 36.9644 -101.2608 251° West 447 514 38,000  Level Kansas City Center
Tue 09:55:43 PM 36.9197 -101.4253 251° West 447 514 38,000  Level Kansas City Center
Tue 09:56:07 PM 36.9064 -101.4714 250° West 448 516 38,000  Level Albuquerque Center
Tue 09:57:08 PM 36.8597 -101.6364 251° West 449 517 38,000  Level Albuquerque Center
Tue 09:58:09 PM 36.8208 -101.7794 251° West 453 521 38,000  Level Albuquerque Center
Tue 09:59:11 PM 36.7797 -101.9214 250° West 455 524 38,000  Level Albuquerque Center
Tue 10:00:12 PM 36.7336 -102.0856 251° West 451 519 38,000  Level Albuquerque Center
Tue 10:01:13 PM 36.6886 -102.2422 250° West 451 519 38,000  Level Albuquerque Center
Tue 10:02:15 PM 36.6458 -102.3897 250° West 454 522 38,000  Level Albuquerque Center
Tue 10:03:16 PM 36.6044 -102.5364 251° West 452 520 38,000  Level Albuquerque Center
Tue 10:04:18 PM 36.5617 -102.6831 250° West 453 521 38,000  Level Albuquerque Center
Tue 10:05:19 PM 36.5186 -102.8281 250° West 452 520 38,000  Level Albuquerque Center
Tue 10:06:20 PM 36.4783 -102.9725 251° West 452 520 38,000  Level Albuquerque Center
Tue 10:07:22 PM 36.4347 -103.1197 250° West 451 519 38,000  Level Albuquerque Center
Tue 10:08:23 PM 36.3908 -103.2669 250° West 451 519 38,000  Level Albuquerque Center
Tue 10:09:24 PM 36.3394 -103.4383 250° West 451 519 38,000  Level Albuquerque Center
Tue 10:10:25 PM 36.2967 -103.5842 250° West 450 518 38,000  Level Albuquerque Center
Tue 10:11:27 PM 36.2608 -103.7350 254° West 451 519 38,000  Level Albuquerque Center
Tue 10:12:28 PM 36.2244 -103.8831 253° West 449 517 38,000  Level Albuquerque Center
Tue 10:13:29 PM 36.1867 -104.0325 253° West 450 518 38,000  Level Albuquerque Center
Tue 10:14:31 PM 36.1506 -104.1808 253° West 450 518 38,000  Level Albuquerque Center
Tue 10:15:32 PM 36.1108 -104.3281 252° West 450 518 38,000  Level Albuquerque Center
Tue 10:16:33 PM 36.0739 -104.4794 253° West 456 525 38,000  Level Albuquerque Center
Tue 10:17:34 PM 36.0364 -104.6300 253° West 457 526 38,000  Level Albuquerque Center
Tue 10:18:36 PM 35.9972 -104.7806 252° West 457 526 38,000  Level Albuquerque Center
Tue 10:19:37 PM 35.9578 -104.9317 252° West 460 529 38,000 -492 Level Albuquerque Center
Tue 10:20:38 PM 35.9111 -105.1106 252° West 466 536 37,000 -934 Descending Albuquerque Center
Tue 10:21:39 PM 35.8731 -105.2608 253° West 461 531 36,100 -1,171 Descending Albuquerque Center
Tue 10:22:41 PM 35.8339 -105.4100 252° West 457 526 34,600 -2,146 Descending Albuquerque Center
Tue 10:23:42 PM 35.7956 -105.5547 252° West 461 531 31,700 -2,557 Descending Albuquerque Center
Tue 10:24:43 PM 35.7567 -105.7028 252° West 458 527 29,400 -2,066 Descending Albuquerque Center
Tue 10:25:44 PM 35.7186 -105.8453 252° West 446 513 27,500 -2,115 Descending Albuquerque Center
Tue 10:26:45 PM 35.6825 -105.9839 252° West 432 497 25,100 -2,195 Descending Albuquerque Center
Tue 10:27:47 PM 35.6461 -106.1169 251° West 417 480 23,000 -2,000 Descending Albuquerque Center
Tue 10:28:48 PM 35.6289 -106.2506 261° West 402 463 21,000 -1,918 Descending Albuquerque Center
Tue 10:29:49 PM 35.6156 -106.3794 263° West 388 447 19,100 -2,154 Descending Albuquerque Center
Tue 10:30:06 PM 35.6075 -106.4375 260° West 376 433 18,200 -2,262 Descending Albuquerque Center
Tue 10:30:50 PM 35.5997 -106.5278 264° West 370 426 16,800 -1,909 Descending Albuquerque Center
Tue 10:31:12 PM 35.5853 -106.5661 245° Southwest 356 410 16,100 -1,967 Descending Albuquerque Center
Tue 10:31:51 PM 35.5347 -106.6086 214° Southwest 375 432 14,800 -1,433 Descending Albuquerque Center
Tue 10:32:19 PM 35.4900 -106.6325 204° Southwest 345 397 14,500 -1,065 Descending Albuquerque Center
Tue 10:32:53 PM 35.4492 -106.6553 204° Southwest 343 395 13,700 -1,475 Descending Albuquerque Center
Tue 10:33:20 PM 35.4083 -106.6772 204° Southwest 317 365 13,000 -1,475 Descending Albuquerque Center
Tue 10:33:54 PM 35.3681 -106.6983 203° Southwest 326 375 12,200 -1,556 Descending Albuquerque Center
Tue 10:34:14 PM 35.3342 -106.7172 204° Southwest 313 360 11,600 -1,475 Descending Albuquerque Center
Tue 10:34:55 PM 35.2881 -106.7408 203° Southwest 318 366 10,700 -1,279 Descending Albuquerque Center
Tue 10:35:15 PM 35.2528 -106.7514 194° South 312 359 10,300 -984 Descending Albuquerque Center
Tue 10:35:56 PM 35.2050 -106.7658 194° South 308 354 9,700 -1,000 Descending Albuquerque Center
Tue 10:36:21 PM 35.1658 -106.7789 195° South 291 335 9,200 -1,082 Descending Albuquerque Center
Tue 10:36:57 PM 35.1264 -106.7906 194° South 298 343 8,600 -590 Descending Albuquerque Center
Tue 10:37:22 PM 35.0872 -106.7936 184° South 259 298 8,600 -484 Level Albuquerque Center
Tue 10:37:59 PM 35.0611 -106.7717 145° Southeast 268 308 8,100 -1,418 Descending Albuquerque Center
Tue 10:38:17 PM 35.0461 -106.7525 134° Southeast 224 258 7,300 -1,377 Descending Albuquerque Center
Tue 10:39:00 PM 35.0442 -106.7033 93° East 236 272 6,700 -1,100 Descending Albuquerque Center
Tue 10:39:17 PM 35.0444 -106.6828 89° East 193 222 6,200 -984 Descending Albuquerque Center
Tue 10:40:01 PM 35.0444 -106.6419 90° East 206 237 5,700 -457 Descending Albuquerque Center
Tue 10:41:02 PM 35.0442 -106.5903 90° East 193 222 5,400 -295 Descending Albuquerque Center

Login

Don't have an account? Register now (free) for customized features, flight alerts, and more!